Bocaiuva do Sul, Brazil
Current Conditions -  °F | °C
As of 4:00 PM on Thursday 23 Oct 2014 (Local Time) from SBBI Reporting Station
Broken Clouds Broken Clouds  
Wind Chill: 73°   Ceiling: 3500
Heat Index: 73°   Visibility: 6mi
Dew Point: 61°   Wind: 10mph
Humidity: 65%   Direction: 120°ESE
Pressure: 30.09"   Gusts: NA
Location:  25.21°S, 49.11°W
Report Text: SBBI 231800Z 12009KT 9999 BKN035 23/16 Q1019
Loading
Personal Weather Stations






























Interactive Weather Map
Tropical Storm Tracking
New forecast layout! Learn more

10-Day Weather Forecast

Advertisements
Track Severe Weather on mobile